Time;durP1;ratioP1;P1;durP2;ratioP2;P2;SDS_P1;SDS_P2;PMS_P1;PMS_P2;Temp;Humidity;BMP_temperature;BMP_pressure;BME280_temperature;BME280_humidity;BME280_pressure;Samples;Min_cycle;Max_cycle;Signal;HPM_P1;HPM_P2
2022/07/22 00:02:04;;;;;;;14.73;13.37;;;;;;;18.27;100.00;96741.09;5048316;27;105181;-64
2022/07/22 00:04:32;;;;;;;13.90;12.80;;;;;;;18.35;100.00;96745.03;5048049;27;105554;-64
2022/07/22 00:06:58;;;;;;;14.37;13.17;;;;;;;18.24;100.00;96744.38;5049887;27;101933;-64
2022/07/22 00:09:26;;;;;;;14.53;13.13;;;;;;;18.18;100.00;96742.03;5049615;27;103849;-64
2022/07/22 00:11:53;;;;;;;12.43;11.10;;;;;;;18.31;100.00;96736.72;5052639;27;102604;-64
2022/07/22 00:14:20;;;;;;;12.87;11.77;;;;;;;18.39;100.00;96740.69;5048275;27;105737;-64
2022/07/22 00:16:47;;;;;;;14.10;12.70;;;;;;;18.50;100.00;96742.16;5049224;27;103174;-64
2022/07/22 00:19:16;;;;;;;12.87;11.67;;;;;;;18.57;100.00;96742.56;5049605;27;101797;-64
2022/07/22 00:21:43;;;;;;;16.83;15.23;;;;;;;18.53;100.00;96734.28;5048105;27;105077;-64
2022/07/22 00:24:10;;;;;;;14.77;13.47;;;;;;;18.37;100.00;96732.91;5048479;27;104290;-64
2022/07/22 00:26:37;;;;;;;14.60;13.30;;;;;;;18.27;100.00;96729.53;5048178;27;102182;-64
2022/07/22 00:29:04;;;;;;;14.40;13.10;;;;;;;18.30;100.00;96723.53;5047875;27;105360;-64
2022/07/22 00:31:32;;;;;;;13.47;12.27;;;;;;;18.28;100.00;96725.72;5047487;27;105378;-64
2022/07/22 00:34:00;;;;;;;13.47;12.27;;;;;;;18.40;100.00;96731.50;5051317;27;102016;-64
2022/07/22 00:36:30;;;;;;;12.03;11.03;;;;;;;18.60;100.00;96723.97;5047455;27;104009;-64
2022/07/22 00:38:57;;;;;;;12.70;11.60;;;;;;;18.53;100.00;96720.81;5048213;27;102006;-64
2022/07/22 00:41:25;;;;;;;12.77;11.67;;;;;;;18.56;100.00;96711.34;5047996;27;105616;-64
2022/07/22 00:43:56;;;;;;;12.87;11.57;;;;;;;18.66;100.00;96716.59;5047212;27;105316;-64
2022/07/22 00:46:24;;;;;;;12.73;11.63;;;;;;;18.34;100.00;96709.25;5047883;27;101841;-64
2022/07/22 00:48:54;;;;;;;13.83;12.63;;;;;;;18.12;100.00;96700.94;5049056;27;101748;-64
2022/07/22 00:51:22;;;;;;;14.30;13.00;;;;;;;18.11;100.00;96710.09;5047327;27;106035;-64
2022/07/22 00:53:51;;;;;;;13.33;12.23;;;;;;;17.98;100.00;96704.63;5047729;27;102002;-64
2022/07/22 00:56:19;;;;;;;14.00;12.50;;;;;;;17.74;100.00;96706.53;5050813;27;105821;-64
2022/07/22 00:58:49;;;;;;;11.80;10.70;;;;;;;17.90;100.00;96713.31;5047368;27;101819;-64
2022/07/22 01:01:17;;;;;;;12.97;11.77;;;;;;;17.92;100.00;96708.47;5049059;27;102254;-63
2022/07/22 01:03:44;;;;;;;14.17;12.87;;;;;;;17.82;100.00;96711.28;5047104;27;105633;-64
2022/07/22 01:06:11;;;;;;;12.83;11.50;;;;;;;17.87;100.00;96703.94;5047703;27;102018;-64
2022/07/22 01:08:39;;;;;;;11.73;10.63;;;;;;;17.88;100.00;96710.13;5047483;27;105576;-64
2022/07/22 01:11:14;;;;;;;11.37;10.23;;;;;;;18.06;100.00;96709.34;5046947;27;105361;-64
2022/07/22 01:13:42;;;;;;;11.87;10.73;;;;;;;18.08;100.00;96707.16;5049205;27;101728;-64
2022/07/22 01:16:10;;;;;;;12.23;11.00;;;;;;;17.99;100.00;96706.22;5047536;27;105433;-64
2022/07/22 01:18:38;;;;;;;11.87;10.87;;;;;;;17.84;100.00;96707.22;5050242;27;101999;-64
2022/07/22 01:21:07;;;;;;;13.17;11.87;;;;;;;17.55;100.00;96694.94;5047487;27;105819;-64
2022/07/22 01:23:35;;;;;;;12.27;11.23;;;;;;;17.55;100.00;96692.25;5046692;27;105770;-64
2022/07/22 01:26:04;;;;;;;12.67;11.60;;;;;;;17.33;100.00;96692.72;5047531;27;101942;-64
2022/07/22 01:28:32;;;;;;;12.90;11.70;;;;;;;17.22;100.00;96688.53;5047330;27;104839;-64
2022/07/22 01:31:00;;;;;;;12.33;11.20;;;;;;;17.45;100.00;96692.34;5046583;27;105706;-64
2022/07/22 01:33:27;;;;;;;11.70;10.70;;;;;;;17.48;100.00;96695.28;5050164;27;101730;-64
2022/07/22 01:35:54;;;;;;;12.77;11.57;;;;;;;17.49;100.00;96701.47;5050605;27;105532;-64
2022/07/22 01:38:23;;;;;;;12.63;11.50;;;;;;;17.71;100.00;96699.84;5053697;27;105467;-64
2022/07/22 01:40:51;;;;;;;11.20;10.13;;;;;;;17.72;100.00;96697.94;5050760;27;105248;-64
2022/07/22 01:43:20;;;;;;;13.07;11.87;;;;;;;17.77;100.00;96703.28;5050021;27;105547;-64
2022/07/22 01:45:52;;;;;;;13.03;11.93;;;;;;;17.69;100.00;96702.03;5050901;27;102351;-64
2022/07/22 01:48:21;;;;;;;14.40;13.00;;;;;;;17.55;100.00;96694.94;5050701;27;106068;-64
2022/07/22 01:50:49;;;;;;;14.40;13.00;;;;;;;17.63;100.00;96694.28;5050024;27;105809;-63
2022/07/22 01:53:17;;;;;;;11.67;10.67;;;;;;;17.89;100.00;96698.28;5050336;27;101975;-64
2022/07/22 01:55:48;;;;;;;12.00;10.80;;;;;;;17.95;100.00;96697.13;5050704;27;105288;-64
2022/07/22 01:58:17;;;;;;;10.60;9.70;;;;;;;17.97;100.00;96692.25;5049738;27;105928;-64
2022/07/22 02:00:45;;;;;;;13.13;11.90;;;;;;;18.00;100.00;96692.50;5054765;27;101947;-64
2022/07/22 02:03:13;;;;;;;11.33;10.43;;;;;;;17.82;100.00;96685.16;5049919;27;105525;-64
2022/07/22 02:05:40;;;;;;;12.90;11.70;;;;;;;17.55;100.00;96673.41;5050291;27;101899;-64
2022/07/22 02:08:18;;;;;;;12.90;11.70;;;;;;;17.20;100.00;96679.16;5050211;27;104869;-64
2022/07/22 02:11:05;;;;;;;12.83;11.63;;;;;;;17.24;100.00;96677.50;5048079;27;102302;-64
2022/07/22 02:13:33;;;;;;;10.57;9.77;;;;;;;17.33;100.00;96684.63;5050242;27;101887;-64
2022/07/22 02:16:00;;;;;;;12.13;10.90;;;;;;;17.32;100.00;96679.53;5051426;27;104797;-64
2022/07/22 02:18:27;;;;;;;10.73;9.73;;;;;;;17.41;100.00;96686.75;5049617;27;105150;-64
2022/07/22 02:20:54;;;;;;;12.43;11.13;;;;;;;17.36;100.00;96685.97;5050998;27;102124;-64
2022/07/22 02:23:22;;;;;;;11.57;10.57;;;;;;;17.29;100.00;96685.50;5053342;27;105568;-64
2022/07/22 02:25:49;;;;;;;11.43;10.43;;;;;;;17.36;100.00;96683.28;5049978;27;102029;-64
2022/07/22 02:28:19;;;;;;;11.40;10.30;;;;;;;17.19;100.00;96677.53;5049824;27;105097;-64
2022/07/22 02:30:47;;;;;;;12.30;11.20;;;;;;;17.12;100.00;96674.41;5048973;27;105858;-64
2022/07/22 02:33:14;;;;;;;12.50;11.30;;;;;;;17.09;100.00;96674.94;5049907;27;102013;-64
2022/07/22 02:35:42;;;;;;;12.03;10.93;;;;;;;17.07;100.00;96672.53;5049340;27;104036;-64
2022/07/22 02:38:09;;;;;;;13.07;11.73;;;;;;;17.02;100.00;96669.13;5049229;27;106269;-64
2022/07/22 02:40:37;;;;;;;11.17;10.13;;;;;;;17.23;100.00;96676.69;5049438;27;102116;-64
2022/07/22 02:43:06;;;;;;;11.13;10.13;;;;;;;17.55;100.00;96684.19;5049775;27;103854;-64
2022/07/22 02:45:35;;;;;;;12.10;11.00;;;;;;;17.48;100.00;96675.63;5052655;27;105916;-64
2022/07/22 02:48:02;;;;;;;12.43;11.30;;;;;;;17.42;100.00;96668.72;5049641;27;104957;-64
2022/07/22 02:50:32;;;;;;;13.50;10.90;;;;;;;17.57;100.00;96682.00;5049055;27;103770;-64
2022/07/22 02:52:59;;;;;;;11.57;10.47;;;;;;;17.67;100.00;96680.00;5049365;27;101882;-64
2022/07/22 02:55:30;;;;;;;11.83;10.83;;;;;;;17.52;100.00;96674.78;5049373;27;103645;-64
2022/07/22 02:58:05;;;;;;;11.40;10.33;;;;;;;17.65;100.00;96684.06;5048886;27;105094;-64
2022/07/22 03:00:37;;;;;;;11.20;10.13;;;;;;;17.35;100.00;96681.69;5049612;27;101793;-64
2022/07/22 03:03:05;;;;;;;11.93;10.80;;;;;;;17.21;100.00;96678.06;5049598;27;104798;-64
2022/07/22 03:05:34;;;;;;;11.57;10.47;;;;;;;17.13;100.00;96676.81;5048834;27;105008;-64
2022/07/22 03:08:21;;;;;;;12.30;11.07;;;;;;;16.91;100.00;96683.75;5052748;27;101913;-64
2022/07/22 03:10:49;;;;;;;12.10;10.97;;;;;;;16.80;100.00;96679.53;5048493;27;105231;-64
2022/07/22 03:13:16;;;;;;;11.07;9.97;;;;;;;16.80;100.00;96679.53;5049473;27;102247;-64
2022/07/22 03:15:45;;;;;;;11.53;10.17;;;;;;;16.87;100.00;96683.50;5049382;27;105542;-64
2022/07/22 03:18:13;;;;;;;11.50;10.37;;;;;;;17.15;100.00;96680.00;5048377;27;105378;-64
2022/07/22 03:20:42;;;;;;;11.60;10.40;;;;;;;17.14;100.00;96688.34;5049364;27;101988;-64
2022/07/22 03:23:10;;;;;;;10.93;9.90;;;;;;;17.19;100.00;96685.59;5048784;27;104842;-63
2022/07/22 03:25:38;;;;;;;12.80;11.43;;;;;;;17.10;100.00;96677.38;5049490;27;105841;-64
2022/07/22 03:28:06;;;;;;;11.50;10.23;;;;;;;17.32;100.00;96684.91;5052167;27;101925;-64
2022/07/22 03:30:33;;;;;;;11.33;10.33;;;;;;;17.21;100.00;96688.81;5048419;27;105397;-64
2022/07/22 03:33:02;;;;;;;12.23;11.07;;;;;;;17.22;100.00;96688.53;5049092;27;101964;-64
2022/07/22 03:35:33;;;;;;;12.07;10.93;;;;;;;17.21;100.00;96683.44;5048344;27;105205;-64
2022/07/22 03:38:01;;;;;;;11.77;10.57;;;;;;;17.60;100.00;96684.91;5048511;27;105200;-64
2022/07/22 03:40:29;;;;;;;11.10;10.00;;;;;;;17.71;100.00;96697.16;5048800;27;101895;-64
2022/07/22 03:42:58;;;;;;;11.17;10.17;;;;;;;17.76;100.00;96682.84;5048647;27;104953;-64
2022/07/22 03:45:25;;;;;;;11.10;10.10;;;;;;;17.77;100.00;96692.50;5048330;27;105545;-63
2022/07/22 03:47:54;;;;;;;11.47;10.47;;;;;;;17.64;100.00;96693.19;5048558;27;101879;-64
2022/07/22 03:50:24;;;;;;;11.47;10.43;;;;;;;17.58;100.00;96688.97;5051572;27;104870;-64
2022/07/22 03:52:52;;;;;;;14.03;12.13;;;;;;;17.59;100.00;96693.25;5048268;27;101966;-64
2022/07/22 03:55:19;;;;;;;11.90;10.87;;;;;;;17.41;100.00;96689.44;5048210;27;105316;-64
2022/07/22 03:57:50;;;;;;;12.03;11.07;;;;;;;17.51;100.00;96689.34;5047920;27;104759;-64
2022/07/22 04:00:24;;;;;;;12.53;10.40;;;;;;;17.52;100.00;96687.44;5048508;27;101875;-64
2022/07/22 04:02:51;;;;;;;11.00;9.90;;;;;;;17.67;100.00;96687.25;5049477;27;102386;-64
2022/07/22 04:05:35;;;;;;;12.77;11.57;;;;;;;17.49;100.00;96686.09;5048467;27;105160;-63
2022/07/22 04:08:02;;;;;;;12.47;11.10;;;;;;;17.41;100.00;96684.06;5048726;27;101870;-66
2022/07/22 04:10:31;;;;;;;12.63;11.43;;;;;;;17.28;100.00;96683.91;5048604;27;105103;-65
2022/07/22 04:13:18;;;;;;;12.23;11.03;;;;;;;17.26;100.00;96689.56;5042987;27;105539;-66
2022/07/22 04:15:51;;;;;;;12.20;11.07;;;;;;;17.22;100.00;96682.38;5028240;28;104526;-65
2022/07/22 04:18:18;;;;;;;11.93;10.90;;;;;;;17.55;100.00;96686.88;5027917;28;105845;-66
2022/07/22 04:20:48;;;;;;;12.33;11.13;;;;;;;17.47;100.00;96682.91;5039851;27;103179;-66
2022/07/22 04:23:33;;;;;;;12.13;11.10;;;;;;;17.42;100.00;96684.84;5028235;27;102249;-66
2022/07/22 04:26:37;;;;;;;12.23;11.07;;;;;;;17.41;100.00;96681.38;5027735;28;105538;-66
2022/07/22 04:29:06;;;;;;;12.07;11.07;;;;;;;17.42;100.00;96682.97;5027963;28;101967;-66
2022/07/22 04:31:33;;;;;;;12.40;11.20;;;;;;;17.49;100.00;96686.09;5038594;27;105213;-65
2022/07/22 04:34:11;;;;;;;11.83;10.83;;;;;;;17.51;100.00;96673.19;5028759;27;105529;-65
2022/07/22 04:36:40;;;;;;;12.10;11.00;;;;;;;17.49;100.00;96674.56;5011364;28;101794;-65
2022/07/22 04:39:07;;;;;;;11.63;10.70;;;;;;;17.48;100.00;96683.69;4999937;28;104957;-65
2022/07/22 04:41:36;;;;;;;11.37;10.23;;;;;;;17.47;100.00;96682.09;4987848;28;101881;-65
2022/07/22 04:44:55;;;;;;;12.53;11.33;;;;;;;17.58;100.00;96686.28;4987971;28;105059;-65
2022/07/22 04:47:22;;;;;;;11.73;10.63;;;;;;;17.74;100.00;96680.44;4987392;28;105579;-65
2022/07/22 04:49:49;;;;;;;12.17;11.07;;;;;;;17.67;100.00;96681.88;4987669;28;101881;-66
2022/07/22 04:52:18;;;;;;;13.10;11.90;;;;;;;17.74;100.00;96676.94;4987569;28;105361;-67
2022/07/22 04:55:01;;;;;;;15.07;13.53;;;;;;;17.81;100.00;96674.69;4986973;28;105470;-67
2022/07/22 04:57:56;;;;;;;14.13;12.63;;;;;;;17.88;100.00;96678.63;5002340;28;101841;-66
2022/07/22 05:00:23;;;;;;;14.67;12.40;;;;;;;17.93;100.00;96675.88;5010415;28;105724;-66
2022/07/22 05:03:24;;;;;;;14.57;13.27;;;;;;;18.11;100.00;96676.97;5007624;28;102016;-66
2022/07/22 05:05:51;;;;;;;14.90;13.30;;;;;;;18.27;100.00;96676.50;5007479;28;105656;-66
2022/07/22 05:08:28;;;;;;;14.23;12.83;;;;;;;18.29;100.00;96678.88;5010164;28;105619;-66
2022/07/22 05:10:56;;;;;;;14.83;13.37;;;;;;;18.40;100.00;96688.44;5011106;28;101950;-67
2022/07/22 05:13:25;;;;;;;14.67;13.17;;;;;;;18.57;100.00;96675.22;5011061;28;105241;-67
2022/07/22 05:15:52;;;;;;;14.30;12.90;;;;;;;18.65;100.00;96674.59;5010292;28;106127;-64
2022/07/22 05:18:19;;;;;;;14.13;12.73;;;;;;;18.78;100.00;96677.31;5011015;28;102017;-65
2022/07/22 05:20:47;;;;;;;14.17;12.97;;;;;;;18.91;100.00;96670.38;4990967;28;105420;-66
2022/07/22 05:23:25;;;;;;;14.57;13.17;;;;;;;18.85;100.00;96672.34;5007243;28;106074;-65
2022/07/22 05:26:43;;;;;;;14.37;13.07;;;;;;;19.04;100.00;96677.69;4990835;28;105042;-66
2022/07/22 05:29:12;;;;;;;14.70;13.23;;;;;;;19.03;100.00;96674.19;4989874;28;105927;-65
2022/07/22 05:31:39;;;;;;;15.67;13.60;;;;;;;19.01;100.00;96678.28;4991803;28;101949;-65
2022/07/22 05:34:09;;;;;;;15.07;13.60;;;;;;;19.23;100.00;96673.06;4990729;28;104871;-66
2022/07/22 05:36:42;;;;;;;14.13;12.83;;;;;;;19.42;100.00;96679.16;5030187;28;106026;-65
2022/07/22 05:39:10;;;;;;;14.67;13.27;;;;;;;19.46;100.00;96674.78;5032906;27;101994;-66
2022/07/22 05:41:38;;;;;;;14.47;13.00;;;;;;;19.52;100.00;96676.28;5050923;27;104700;-66
2022/07/22 05:44:07;;;;;;;14.53;13.03;;;;;;;19.68;100.00;96666.78;5053662;27;104872;-65
2022/07/22 05:46:36;;;;;;;14.60;13.27;;;;;;;19.60;100.00;96672.88;5050051;27;103833;-65
2022/07/22 05:49:03;;;;;;;14.40;13.00;;;;;;;19.45;100.00;96676.66;5050289;27;105402;-66
2022/07/22 05:51:37;;;;;;;12.70;11.40;;;;;;;19.64;100.00;96665.78;5050570;27;101996;-64
2022/07/22 05:54:05;;;;;;;15.10;13.60;;;;;;;19.71;100.00;96671.56;5049955;27;105204;-65
2022/07/22 05:57:00;;;;;;;14.30;12.90;;;;;;;19.51;100.00;96667.38;5029985;28;105547;-67
2022/07/22 05:59:28;;;;;;;14.57;13.07;;;;;;;19.71;100.00;96666.16;5046944;27;102021;-70
2022/07/22 06:01:57;;;;;;;14.47;12.77;;;;;;;20.00;100.00;96674.75;5030137;28;105085;-69
2022/07/22 06:04:57;;;;;;;14.13;12.73;;;;;;;20.23;100.00;96666.44;5030162;28;105509;-70
2022/07/22 06:07:26;;;;;;;14.03;12.63;;;;;;;20.47;100.00;96666.13;5034435;28;101931;-70
2022/07/22 06:09:58;;;;;;;14.20;13.00;;;;;;;20.60;100.00;96660.69;5039801;27;103696;-70
2022/07/22 06:12:26;;;;;;;13.73;12.43;;;;;;;20.65;100.00;96673.28;5051017;27;101929;-70
2022/07/22 06:14:58;;;;;;;15.37;13.87;;;;;;;20.68;100.00;96669.97;5052459;27;101848;-68
2022/07/22 06:17:26;;;;;;;14.93;13.60;;;;;;;20.78;100.00;96672.41;5050140;27;105084;-68
2022/07/22 06:19:54;;;;;;;14.37;12.87;;;;;;;20.95;100.00;96667.16;5043181;27;101913;-69
2022/07/22 06:22:22;;;;;;;14.17;12.77;;;;;;;21.23;100.00;96663.16;5030355;28;105403;-66
2022/07/22 06:24:57;;;;;;;12.93;11.73;;;;;;;21.28;100.00;96660.34;5029536;28;104838;-66
2022/07/22 06:27:44;;;;;;;14.93;12.93;;;;;;;20.82;100.00;96665.28;5032638;27;103552;-65
2022/07/22 06:30:12;;;;;;;13.50;12.10;;;;;;;20.90;100.00;96661.88;5053283;27;105207;-65
2022/07/22 06:32:41;;;;;;;14.20;12.70;;;;;;;20.91;100.00;96663.47;5046850;27;102006;-66
2022/07/22 06:35:09;;;;;;;13.83;12.53;;;;;;;20.77;100.00;96665.41;5039155;27;104870;-65
2022/07/22 06:37:37;;;;;;;14.13;12.73;;;;;;;20.56;100.00;96664.31;5049702;27;105699;-68
2022/07/22 06:40:04;;;;;;;14.37;12.93;;;;;;;20.98;100.00;96663.84;5050018;27;101992;-67
2022/07/22 06:43:05;;;;;;;14.27;12.60;;;;;;;20.96;100.00;96652.53;5050123;27;103768;-68
2022/07/22 06:45:52;;;;;;;15.57;13.90;;;;;;;21.08;100.00;96660.88;5039013;27;103136;-68
2022/07/22 06:48:34;;;;;;;14.00;12.67;;;;;;;21.23;100.00;96655.06;5050008;27;101844;-67
2022/07/22 06:51:02;;;;;;;14.70;13.27;;;;;;;21.46;100.00;96651.16;5049706;27;105126;-67
2022/07/22 06:53:29;;;;;;;16.17;13.97;;;;;;;21.33;100.00;96647.47;5032545;28;104030;-68
2022/07/22 06:56:48;;;;;;;15.03;13.50;;;;;;;21.58;100.00;96654.09;5045980;27;105707;-68
2022/07/22 06:59:20;;;;;;;14.97;13.57;;;;;;;22.00;100.00;96645.31;5049367;27;105223;-66
2022/07/22 07:01:47;;;;;;;15.87;14.30;;;;;;;22.36;100.00;96643.13;5049719;27;101966;-68
2022/07/22 07:04:28;;;;;;;31.33;19.13;;;;;;;22.37;100.00;96633.88;5049400;27;105437;-68
2022/07/22 07:06:55;;;;;;;15.83;14.33;;;;;;;22.77;100.00;96638.81;5049255;27;105293;-67
2022/07/22 07:09:38;;;;;;;18.43;14.43;;;;;;;22.93;100.00;96639.91;5044730;27;101966;-65
2022/07/22 07:12:21;;;;;;;14.10;12.80;;;;;;;23.19;100.00;96639.88;5029134;28;105169;-66
2022/07/22 07:15:07;;;;;;;15.27;13.70;;;;;;;23.03;100.00;96634.13;5027080;28;102382;-66
2022/07/22 07:17:34;;;;;;;14.27;12.83;;;;;;;22.65;100.00;96629.72;5032749;28;101721;-66
2022/07/22 07:20:07;;;;;;;14.70;12.77;;;;;;;22.76;100.00;96636.41;5028674;28;105640;-65
2022/07/22 07:22:36;;;;;;;14.60;12.23;;;;;;;23.31;100.00;96634.56;5031705;27;101896;-65
2022/07/22 07:25:05;;;;;;;13.20;11.90;;;;;;;22.82;100.00;96635.94;5049594;27;105469;-64
2022/07/22 07:28:04;;;;;;;14.07;12.50;;;;;;;22.87;100.00;96633.06;5048606;27;104790;-65
2022/07/22 07:30:46;;;;;;;14.07;11.40;;;;;;;22.92;100.00;96632.09;5027973;27;101996;-64
2022/07/22 07:33:35;;;;;;;11.20;10.07;;;;;;;23.21;100.00;96624.84;5030318;28;102319;-66
2022/07/22 07:36:04;;;;;;;10.63;9.10;;;;;;;23.27;100.00;96625.50;5029962;27;105336;-65
2022/07/22 07:38:42;;;;;;;11.67;10.50;;;;;;;23.29;100.00;96620.53;5050207;27;101903;-65
2022/07/22 07:41:14;;;;;;;11.20;10.23;;;;;;;23.60;100.00;96618.31;5052046;27;105217;-66
2022/07/22 07:47:05;;;;;;;11.23;10.23;;;;;;;24.05;100.00;96616.63;5048868;27;105132;-65
2022/07/22 07:49:33;;;;;;;11.17;9.93;;;;;;;23.86;100.00;96616.25;5048403;27;105394;-65
2022/07/22 07:52:02;;;;;;;10.03;9.20;;;;;;;23.92;100.00;96614.97;5049783;27;101869;-65
2022/07/22 07:55:10;;;;;;;11.33;9.97;;;;;;;23.82;100.00;96616.09;5051345;27;102484;-65
2022/07/22 07:57:57;;;;;;;10.37;9.30;;;;;;;23.92;100.00;96614.97;5048319;27;105592;-65
2022/07/22 08:00:28;;;;;;;10.33;9.33;;;;;;;24.18;100.00;96618.28;5049632;27;101842;-65
2022/07/22 08:03:06;;;;;;;10.50;9.43;;;;;;;24.23;100.00;96612.66;5038431;27;104902;-65
2022/07/22 08:05:33;;;;;;;10.10;8.93;;;;;;;24.50;100.00;96610.19;5029349;28;101820;-65
2022/07/22 08:08:04;;;;;;;9.83;8.93;;;;;;;24.50;100.00;96612.09;5029318;28;104793;-65
2022/07/22 08:10:31;;;;;;;10.63;9.17;;;;;;;24.03;100.00;96616.19;5043911;27;104328;-65
2022/07/22 08:13:44;;;;;;;10.20;9.07;;;;;;;24.83;100.00;96611.03;5049492;27;102019;-65
2022/07/22 08:16:14;;;;;;;10.87;9.90;;;;;;;24.51;100.00;96617.22;5047780;27;102131;-66
2022/07/22 08:18:41;;;;;;;10.43;9.43;;;;;;;24.65;100.00;96608.81;5048916;27;104244;-67
2022/07/22 08:21:08;;;;;;;11.10;10.00;;;;;;;24.91;100.00;96610.13;5049516;27;101948;-66
2022/07/22 08:23:55;;;;;;;9.80;8.90;;;;;;;25.02;100.00;96611.31;5048552;27;105662;-66
2022/07/22 08:26:43;;;;;;;10.07;9.03;;;;;;;25.03;100.00;96612.91;5052185;27;105146;-66
2022/07/22 08:29:10;;;;;;;12.07;9.50;;;;;;;25.04;100.00;96611.78;5049449;27;105185;-66
2022/07/22 08:31:38;;;;;;;10.67;9.67;;;;;;;25.51;100.00;96606.78;5048276;27;104425;-66
2022/07/22 08:34:18;;;;;;;12.77;11.07;;;;;;;25.81;100.00;96605.38;5029070;28;101916;-65
2022/07/22 08:36:46;;;;;;;12.20;11.10;;;;;;;25.63;100.00;96604.03;4988252;28;105247;-65
2022/07/22 08:39:15;;;;;;;11.50;10.40;;;;;;;25.87;100.00;96607.56;4987243;28;105554;-66
2022/07/22 08:41:43;;;;;;;10.60;9.67;;;;;;;26.06;100.00;96596.91;4989941;28;101891;-67
2022/07/22 08:44:17;;;;;;;10.97;9.00;;;;;;;26.19;100.00;96592.19;4992486;28;105192;-67
2022/07/22 08:46:46;;;;;;;11.20;9.60;;;;;;;26.34;100.00;96596.91;4991949;28;104683;-68
2022/07/22 08:49:19;;;;;;;10.23;9.33;;;;;;;26.52;100.00;96590.03;4994117;28;101861;-67
2022/07/22 08:51:55;;;;;;;10.10;9.10;;;;;;;26.40;100.00;96584.63;4993778;28;105135;-68
2022/07/22 08:54:30;;;;;;;11.93;9.67;;;;;;;26.17;100.00;96575.38;5013830;28;102238;-67
2022/07/22 08:57:00;;;;;;;10.77;9.60;;;;;;;26.36;100.00;96581.00;5012583;28;104043;-68
2022/07/22 08:59:27;;;;;;;9.60;8.60;;;;;;;27.17;100.00;96581.34;4994747;28;104887;-68
2022/07/22 09:02:06;;;;;;;9.70;8.43;;;;;;;27.08;100.00;96576.03;5011908;28;101898;-68
2022/07/22 09:04:55;;;;;;;7.90;7.30;;;;;;;27.77;100.00;96573.47;5012250;28;104830;-68
2022/07/22 09:07:28;;;;;;;9.40;8.37;;;;;;;27.38;100.00;96570.97;5011362;28;105658;-68
2022/07/22 09:09:59;;;;;;;8.87;7.63;;;;;;;27.09;100.00;96566.69;5011806;28;101864;-68
2022/07/22 09:13:25;;;;;;;8.17;7.37;;;;;;;27.85;100.00;96574.47;5013521;28;102775;-71
2022/07/22 09:16:10;;;;;;;7.53;6.93;;;;;;;28.22;100.00;96575.69;5008536;28;101958;-68
2022/07/22 09:18:49;;;;;;;8.50;7.80;;;;;;;28.30;100.00;96570.00;5000169;28;103374;-68
2022/07/22 09:21:38;;;;;;;9.50;8.07;;;;;;;28.02;100.00;96563.13;5006930;28;101978;-69
2022/07/22 09:24:32;;;;;;;10.30;9.30;;;;;;;27.37;100.00;96563.91;5012040;28;101829;-67
2022/07/22 09:27:38;;;;;;;10.57;9.47;;;;;;;27.42;100.00;96559.00;5012066;28;104930;-67
2022/07/22 09:30:28;;;;;;;85.87;18.13;;;;;;;28.26;100.00;96560.13;5000605;28;105950;-67
2022/07/22 09:33:06;;;;;;;33.83;12.57;;;;;;;28.72;100.00;96559.94;4990819;28;101917;-68
2022/07/22 09:35:40;;;;;;;10.77;9.20;;;;;;;28.96;100.00;96562.38;5012853;28;105291;-68
2022/07/22 09:38:10;;;;;;;9.40;8.60;;;;;;;29.18;100.00;96555.31;5035139;27;106455;-68
2022/07/22 09:40:39;;;;;;;9.47;8.67;;;;;;;29.43;100.00;96546.34;5043631;27;105027;-68
2022/07/22 09:43:16;;;;;;;10.07;8.43;;;;;;;29.48;100.00;96545.28;5051345;27;105532;-66
2022/07/22 09:45:49;;;;;;;9.50;7.95;;;;;;;29.68;100.00;96550.31;5039642;27;102063;-67
2022/07/22 09:48:18;;;;;;;8.47;7.63;;;;;;;29.92;100.00;96538.91;5031518;28;104828;-68
2022/07/22 09:51:12;;;;;;;8.95;8.05;;;;;;;29.58;100.00;96545.47;5030787;27;103553;-67
2022/07/22 09:54:07;;;;;;;8.73;8.00;;;;;;;29.47;100.00;96541.72;5031455;27;102105;-67
2022/07/22 09:57:05;;;;;;;9.00;7.55;;;;;;;29.76;100.00;96537.50;5031400;28;104716;-68
2022/07/22 09:59:35;;;;;;;8.73;7.82;;;;;;;29.67;100.00;96536.97;5030626;28;105324;-66
2022/07/22 10:02:23;;;;;;;8.82;8.13;;;;;;;29.91;100.00;96528.34;5036090;27;101729;-68
2022/07/22 10:08:13;;;;;;;8.77;8.07;;;;;;;30.38;100.00;96520.34;5031424;28;101977;-68
2022/07/22 10:10:41;;;;;;;8.38;7.53;;;;;;;30.59;99.59;96526.09;5032949;27;104812;-68
2022/07/22 10:13:09;;;;;;;7.82;7.20;;;;;;;30.91;100.00;96516.28;5050573;27;105186;-68
2022/07/22 10:15:39;;;;;;;18.02;7.78;;;;;;;30.90;91.62;96515.47;5051402;27;101841;-68
2022/07/22 10:18:09;;;;;;;25.80;7.70;;;;;;;31.19;96.55;96514.63;5051668;27;104727;-68
2022/07/22 10:20:38;;;;;;;7.30;6.60;;;;;;;31.68;93.71;96505.94;5050813;27;105507;-68
2022/07/22 10:23:16;;;;;;;7.20;6.50;;;;;;;31.82;86.28;96500.59;5036405;27;101840;-68
2022/07/22 10:25:52;;;;;;;6.65;5.95;;;;;;;31.80;87.13;96500.97;5030549;28;105471;-68
2022/07/22 10:28:26;;;;;;;10.52;6.80;;;;;;;32.08;81.16;96503.06;5030917;28;102163;-68
2022/07/22 10:31:18;;;;;;;6.78;5.97;;;;;;;32.18;71.63;96500.38;5038802;27;105650;-68
2022/07/22 10:33:46;;;;;;;7.15;6.43;;;;;;;32.20;71.13;96500.00;5031770;28;102833;-68
2022/07/22 10:36:14;;;;;;;6.53;5.93;;;;;;;32.16;72.54;96501.94;5030804;28;102003;-68
2022/07/22 10:39:04;;;;;;;6.93;6.25;;;;;;;32.17;67.12;96500.75;5030862;28;104587;-68
2022/07/22 10:41:36;;;;;;;6.10;5.50;;;;;;;32.23;65.50;96493.72;5043002;27;105715;-68
2022/07/22 10:44:11;;;;;;;6.13;5.57;;;;;;;32.49;58.17;96502.50;5051172;27;101880;-68
2022/07/22 10:46:54;;;;;;;5.80;5.40;;;;;;;32.62;53.15;96495.47;5053124;27;106807;-68
2022/07/22 10:49:24;;;;;;;5.68;5.18;;;;;;;32.86;52.04;96493.97;5052636;27;101688;-68
2022/07/22 10:52:11;;;;;;;5.25;4.85;;;;;;;32.82;52.21;96493.97;5049953;27;105284;-68
2022/07/22 10:55:26;;;;;;;5.90;5.35;;;;;;;32.94;51.37;96490.03;5050224;27;105996;-69
2022/07/22 10:57:56;;;;;;;6.30;5.70;;;;;;;32.96;50.67;96480.19;5052345;27;101939;-68
2022/07/22 11:00:24;;;;;;;5.72;5.22;;;;;;;32.86;50.98;96474.69;5030675;27;105027;-68
2022/07/22 11:06:18;;;;;;;5.60;5.10;;;;;;;33.15;51.16;96481.78;5040753;27;101897;-68
2022/07/22 11:08:47;;;;;;;6.40;5.75;;;;;;;33.15;53.03;96476.28;5050739;27;105111;-68
2022/07/22 11:11:15;;;;;;;6.10;5.60;;;;;;;33.28;52.85;96474.75;5054103;27;102745;-68
2022/07/22 11:14:24;;;;;;;6.47;5.95;;;;;;;32.87;55.63;96465.22;5050496;27;105386;-68
2022/07/22 11:16:52;;;;;;;6.32;5.75;;;;;;;33.03;49.70;96465.66;5051239;27;102731;-68
2022/07/22 11:19:24;;;;;;;5.53;5.13;;;;;;;32.92;57.83;96467.59;5050762;27;101981;-68
2022/07/22 11:21:54;;;;;;;5.60;5.20;;;;;;;33.31;55.50;96460.97;5035060;27;105660;-67
2022/07/22 11:24:33;;;;;;;6.18;5.72;;;;;;;33.67;51.86;96453.44;5029462;27;105469;-69
2022/07/22 11:27:21;;;;;;;6.00;5.50;;;;;;;33.21;51.39;96458.97;5045087;27;102298;-68
2022/07/22 11:29:50;;;;;;;6.70;6.22;;;;;;;33.73;52.68;96468.38;5051491;27;104165;-64
2022/07/22 11:32:18;;;;;;;6.13;5.72;;;;;;;33.98;53.50;96456.13;5050372;27;102621;-64
2022/07/22 11:34:47;;;;;;;6.45;5.93;;;;;;;34.08;52.38;96449.78;5047953;27;101948;-63
2022/07/22 11:37:16;;;;;;;5.82;5.40;;;;;;;33.91;50.33;96449.84;5049727;27;105783;-64
2022/07/22 11:39:44;;;;;;;6.60;5.93;;;;;;;33.71;49.07;96445.91;5050127;27;101931;-65
2022/07/22 11:42:11;;;;;;;6.43;5.90;;;;;;;33.61;51.13;96436.47;5051257;27;102463;-65
2022/07/22 11:44:41;;;;;;;6.90;5.82;;;;;;;33.90;48.77;96440.75;5050853;27;103038;-65
2022/07/22 11:47:10;;;;;;;6.35;5.75;;;;;;;33.87;47.89;96449.84;5051214;27;101796;-65